Terminal Aerodrome Forecast
Issued by NWS Cleveland, OH

Home | Current Version | Previous Version | Graphics & Text | Print | Product List | Glossary On
Versions: 1 2 3 4 5 6 7 8 9 10 11 12 13 14 15 16 17 18 19 20 21 22 23 24 25 26 27
000
FTUS41 KCLE 090734 AAB
TAFCLE
TAF AMD
KCLE 090734Z 0908/1012 26014G20KT P6SM -SN OVC018
      TEMPO 0908/0911 2SM -SHSN BKN009
     FM091100 27014G20KT 1SM -SHSN BKN008 OVC015
     FM091400 27014G22KT 3SM -SHSN SCT008 OVC012
      TEMPO 0914/0918 1SM -SN
     FM092000 27014KT 3SM -SHSN SCT012 OVC020
     FM100300 25010KT 6SM -SN SCT015 OVC020=

USA.gov is the U.S. government's official web portal to all federal, state and local government web resources and services.